Time;durP1;ratioP1;P1;durP2;ratioP2;P2;SDS_P1;SDS_P2;PMS_P1;PMS_P2;Temp;Humidity;BMP_temperature;BMP_pressure;BME280_temperature;BME280_humidity;BME280_pressure;Samples;Min_cycle;Max_cycle;Signal;HPM_P1;HPM_P2
2022/04/07 00:00:13;;;;;;;0.50;0.30;;;10.90;99.90;;;;;;5055808;28;20457;-60
2022/04/07 00:02:39;;;;;;;0.50;0.30;;;10.80;99.90;;;;;;5055237;28;20853;-60
2022/04/07 00:05:07;;;;;;;0.50;0.30;;;10.70;99.90;;;;;;5055299;28;20804;-60
2022/04/07 00:07:34;;;;;;;0.50;0.20;;;10.70;99.90;;;;;;5055760;28;20462;-60
2022/04/07 00:10:01;;;;;;;0.50;0.30;;;10.70;99.90;;;;;;5054363;28;20510;-60
2022/04/07 00:12:27;;;;;;;0.50;0.30;;;10.70;99.90;;;;;;5054530;28;20511;-60
2022/04/07 00:14:56;;;;;;;0.50;0.30;;;10.70;99.90;;;;;;5054345;28;20720;-60
2022/04/07 00:17:23;;;;;;;0.60;0.30;;;10.70;99.90;;;;;;5054191;28;20519;-60
2022/04/07 00:19:50;;;;;;;0.60;0.30;;;10.60;99.90;;;;;;5054019;28;20425;-60
2022/04/07 00:22:17;;;;;;;0.45;0.30;;;10.60;99.90;;;;;;5054493;28;20445;-60
2022/04/07 00:24:44;;;;;;;0.50;0.30;;;10.60;99.90;;;;;;5055474;28;20421;-61
2022/04/07 00:27:11;;;;;;;0.65;0.20;;;10.60;99.90;;;;;;5055562;28;20468;-61
2022/04/07 00:29:38;;;;;;;0.50;0.30;;;10.50;99.90;;;;;;5054641;28;20816;-60
2022/04/07 00:32:08;;;;;;;0.60;0.30;;;10.40;99.90;;;;;;5055852;28;20519;-61
2022/04/07 00:34:34;;;;;;;0.60;0.30;;;10.40;99.90;;;;;;5056501;28;20426;-60
2022/04/07 00:37:02;;;;;;;0.50;0.30;;;10.50;99.90;;;;;;5056049;28;20433;-60
2022/04/07 00:39:29;;;;;;;1.10;0.30;;;10.50;99.90;;;;;;5055464;28;20886;-60
2022/04/07 00:41:56;;;;;;;0.60;0.30;;;10.50;99.90;;;;;;5054871;28;20536;-60
2022/04/07 00:44:24;;;;;;;0.40;0.22;;;10.40;99.90;;;;;;5055324;28;20425;-60
2022/04/07 00:46:51;;;;;;;0.60;0.30;;;10.50;99.90;;;;;;5054944;28;20841;-60
2022/04/07 00:49:19;;;;;;;0.50;0.20;;;10.50;99.90;;;;;;5053114;28;20461;-62
2022/04/07 00:51:46;;;;;;;0.60;0.30;;;10.50;99.90;;;;;;5054473;28;20433;-60
2022/04/07 00:54:13;;;;;;;0.60;0.20;;;10.50;99.90;;;;;;5054435;28;20425;-60
2022/04/07 00:56:41;;;;;;;0.50;0.20;;;10.50;99.90;;;;;;5055230;28;20910;-60
2022/04/07 00:59:11;;;;;;;0.80;0.22;;;10.50;99.90;;;;;;5054260;28;20456;-60
2022/04/07 01:01:38;;;;;;;0.40;0.20;;;10.50;99.90;;;;;;5052368;28;20744;-60
2022/04/07 01:04:05;;;;;;;0.40;0.20;;;10.60;99.90;;;;;;5051792;28;20453;-60
2022/04/07 01:06:34;;;;;;;0.40;0.20;;;10.60;99.90;;;;;;5052509;28;20421;-60
2022/04/07 01:09:01;;;;;;;0.40;0.20;;;10.70;99.90;;;;;;5052634;28;20794;-60
2022/04/07 01:11:31;;;;;;;0.40;0.20;;;10.70;99.90;;;;;;5052390;28;20758;-60
2022/04/07 01:13:58;;;;;;;0.50;0.20;;;10.70;99.90;;;;;;5052846;28;20512;-59
2022/04/07 01:16:27;;;;;;;0.40;0.20;;;10.70;99.90;;;;;;5054031;28;20425;-60
2022/04/07 01:18:56;;;;;;;0.40;0.20;;;10.70;99.90;;;;;;5053860;28;20514;-60
2022/04/07 01:21:23;;;;;;;0.40;0.20;;;10.60;99.90;;;;;;5053405;28;20531;-60
2022/04/07 01:23:56;;;;;;;0.70;0.20;;;10.50;99.90;;;;;;5054329;28;20471;-59
2022/04/07 01:26:26;;;;;;;0.50;0.20;;;10.40;99.90;;;;;;5054816;28;20527;-59
2022/04/07 01:28:53;;;;;;;0.55;0.20;;;10.50;99.90;;;;;;5054096;28;20421;-60
2022/04/07 01:31:20;;;;;;;0.40;0.20;;;10.50;99.90;;;;;;5054858;28;20718;-59
2022/04/07 01:33:47;;;;;;;1.10;0.20;;;10.50;99.90;;;;;;5054653;28;20465;-61
2022/04/07 01:36:16;;;;;;;0.37;0.20;;;10.50;99.90;;;;;;5055065;28;20547;-60
2022/04/07 01:38:43;;;;;;;1.30;0.20;;;10.40;99.90;;;;;;5054606;28;20509;-60
2022/04/07 01:41:10;;;;;;;0.40;0.20;;;10.40;99.90;;;;;;5054640;28;20542;-60
2022/04/07 01:43:40;;;;;;;0.40;0.20;;;10.30;99.90;;;;;;5054200;28;20892;-60
2022/04/07 01:46:08;;;;;;;0.40;0.20;;;10.30;99.90;;;;;;5055362;28;20461;-59
2022/04/07 01:48:35;;;;;;;0.30;0.20;;;10.20;99.90;;;;;;5054919;28;20478;-60
2022/04/07 01:51:03;;;;;;;0.70;0.20;;;10.10;99.90;;;;;;5055288;28;20539;-59
2022/04/07 01:53:30;;;;;;;0.50;0.20;;;10.10;99.90;;;;;;5055171;28;20496;-59
2022/04/07 01:55:58;;;;;;;0.40;0.20;;;10.10;99.90;;;;;;5055039;28;20772;-61
2022/04/07 01:58:25;;;;;;;0.50;0.30;;;10.20;99.90;;;;;;5053285;28;20429;-60
2022/04/07 02:00:54;;;;;;;0.40;0.20;;;10.20;99.90;;;;;;5054643;28;20471;-60
2022/04/07 02:03:21;;;;;;;0.85;0.20;;;10.30;99.90;;;;;;5054802;28;20487;-60
2022/04/07 02:05:48;;;;;;;0.45;0.20;;;10.30;99.90;;;;;;5054085;28;20429;-60
2022/04/07 02:08:16;;;;;;;0.73;0.30;;;10.30;99.90;;;;;;5053461;28;20457;-60
2022/04/07 02:10:43;;;;;;;0.80;0.20;;;10.30;99.90;;;;;;5053883;28;20668;-59
2022/04/07 02:13:09;;;;;;;0.40;0.20;;;10.20;99.90;;;;;;5053279;28;20728;-60
2022/04/07 02:15:36;;;;;;;1.10;0.30;;;10.20;99.90;;;;;;5054425;28;20603;-60
2022/04/07 02:18:05;;;;;;;0.47;0.30;;;10.20;99.90;;;;;;5054357;28;20796;-59
2022/04/07 02:20:32;;;;;;;0.40;0.20;;;10.30;99.90;;;;;;5053948;28;20441;-61
2022/04/07 02:22:59;;;;;;;0.40;0.20;;;10.20;99.90;;;;;;5054220;28;20874;-60
2022/04/07 02:25:28;;;;;;;0.40;0.20;;;10.30;99.90;;;;;;5053435;28;20425;-60
2022/04/07 02:27:55;;;;;;;0.45;0.20;;;10.40;99.90;;;;;;5052639;28;20427;-60
2022/04/07 02:30:22;;;;;;;0.40;0.20;;;10.40;99.90;;;;;;5054337;28;20721;-60
2022/04/07 02:32:49;;;;;;;0.40;0.20;;;10.40;99.90;;;;;;5054066;28;20789;-60
2022/04/07 02:35:17;;;;;;;0.40;0.20;;;10.40;99.90;;;;;;5053361;28;20721;-60
2022/04/07 02:37:44;;;;;;;0.40;0.20;;;10.30;99.90;;;;;;5054058;28;20445;-60
2022/04/07 02:40:12;;;;;;;0.50;0.30;;;10.20;99.90;;;;;;5053515;28;20445;-60
2022/04/07 02:42:39;;;;;;;0.50;0.20;;;10.20;99.90;;;;;;5052764;28;20437;-60
2022/04/07 02:45:08;;;;;;;0.50;0.30;;;10.20;99.90;;;;;;5052674;28;20421;-60
2022/04/07 02:47:38;;;;;;;0.70;0.30;;;10.20;99.90;;;;;;5052521;28;20435;-60
2022/04/07 02:50:06;;;;;;;0.50;0.20;;;10.20;99.90;;;;;;5052480;28;20417;-59
2022/04/07 02:52:34;;;;;;;0.40;0.20;;;10.20;99.90;;;;;;5054827;28;20523;-59
2022/04/07 02:55:02;;;;;;;0.40;0.20;;;10.20;99.90;;;;;;5056366;28;20477;-60
2022/04/07 02:57:31;;;;;;;0.40;0.20;;;10.20;99.90;;;;;;5057289;28;20851;-59
2022/04/07 02:59:58;;;;;;;0.30;0.20;;;10.20;99.90;;;;;;5057590;28;20495;-60
2022/04/07 03:02:25;;;;;;;0.40;0.20;;;10.20;91.00;;;;;;5058092;28;20444;-59
2022/04/07 03:04:52;;;;;;;0.40;0.20;;;10.20;45.00;;;;;;5057819;28;20428;-60
2022/04/07 03:07:20;;;;;;;0.40;0.20;;;10.30;34.50;;;;;;5057985;28;20429;-60
2022/04/07 03:09:48;;;;;;;0.70;0.20;;;10.30;25.10;;;;;;5056485;28;20540;-60
2022/04/07 03:12:15;;;;;;;0.70;0.20;;;10.20;1.00;;;;;;5056670;28;20428;-60
2022/04/07 03:14:43;;;;;;;0.50;0.20;;;10.30;21.10;;;;;;5057247;28;20441;-60
2022/04/07 03:17:09;;;;;;;0.40;0.20;;;10.30;10.20;;;;;;5056017;28;20483;-60
2022/04/07 03:19:37;;;;;;;0.40;0.20;;;10.10;1.00;;;;;;5056727;28;20496;-61
2022/04/07 03:22:04;;;;;;;0.40;0.20;;;10.10;1.00;;;;;;5057041;28;20856;-60
2022/04/07 03:24:31;;;;;;;0.40;0.20;;;10.10;1.00;;;;;;5057410;28;20920;-60
2022/04/07 03:26:59;;;;;;;0.30;0.20;;;10.20;1.00;;;;;;5056925;28;20467;-59
2022/04/07 03:29:28;;;;;;;0.50;0.20;;;10.20;1.00;;;;;;5056095;28;20421;-60
2022/04/07 03:31:54;;;;;;;0.40;0.20;;;10.20;1.00;;;;;;5056187;28;20714;-60
2022/04/07 03:34:21;;;;;;;0.70;0.20;;;10.10;1.00;;;;;;5056203;28;20440;-62
2022/04/07 03:36:48;;;;;;;0.30;0.10;;;10.20;1.00;;;;;;5055786;28;20523;-61
2022/04/07 03:39:15;;;;;;;0.50;0.20;;;10.20;1.00;;;;;;5055367;28;20427;-60
2022/04/07 03:41:42;;;;;;;0.50;0.20;;;10.30;1.00;;;;;;5056245;28;20464;-60
2022/04/07 03:44:10;;;;;;;0.90;0.20;;;10.20;1.00;;;;;;5056999;28;20508;-60
2022/04/07 03:46:37;;;;;;;0.55;0.20;;;10.10;1.00;;;;;;5056784;28;20425;-61
2022/04/07 03:49:04;;;;;;;0.80;0.20;;;10.00;7.10;;;;;;5057002;28;20845;-60
2022/04/07 03:51:31;;;;;;;0.40;0.20;;;10.00;9.00;;;;;;5056718;28;20437;-61
2022/04/07 03:53:59;;;;;;;0.80;0.20;;;10.00;14.30;;;;;;5056959;28;20445;-62
2022/04/07 03:56:25;;;;;;;0.30;0.20;;;10.00;3.30;;;;;;5056698;28;20778;-60
2022/04/07 03:58:52;;;;;;;0.40;0.20;;;10.00;4.80;;;;;;5056605;28;20484;-60
2022/04/07 04:01:21;;;;;;;0.40;0.20;;;10.00;1.00;;;;;;5056376;28;20464;-60
2022/04/07 04:03:47;;;;;;;0.77;0.20;;;10.00;8.00;;;;;;5054973;28;20499;-59
2022/04/07 04:06:14;;;;;;;0.40;0.30;;;10.00;1.00;;;;;;5055966;28;20525;-60
2022/04/07 04:08:41;;;;;;;0.40;0.20;;;10.10;1.00;;;;;;5056302;28;20468;-60
2022/04/07 04:11:08;;;;;;;0.40;0.20;;;10.10;1.00;;;;;;5056340;28;20522;-60
2022/04/07 04:13:35;;;;;;;0.40;0.15;;;10.10;1.00;;;;;;5055887;28;20512;-60
2022/04/07 04:16:02;;;;;;;0.40;0.20;;;10.10;1.00;;;;;;5053656;28;20528;-60
2022/04/07 04:18:30;;;;;;;0.40;0.20;;;10.10;1.00;;;;;;5054991;28;20421;-60
2022/04/07 04:20:57;;;;;;;0.50;0.20;;;10.10;1.00;;;;;;5054486;28;20529;-60
2022/04/07 04:23:24;;;;;;;0.40;0.20;;;10.10;1.00;;;;;;5055201;28;20993;-60
2022/04/07 04:25:51;;;;;;;0.40;0.20;;;10.10;1.00;;;;;;5053922;28;20429;-60
2022/04/07 04:28:18;;;;;;;0.60;0.30;;;10.00;1.00;;;;;;5054371;28;20876;-60
2022/04/07 04:30:44;;;;;;;1.20;0.20;;;10.10;1.00;;;;;;5055173;28;20811;-60
2022/04/07 04:33:12;;;;;;;0.30;0.20;;;10.10;1.00;;;;;;5055491;28;20728;-60
2022/04/07 04:35:40;;;;;;;0.40;0.20;;;10.10;1.00;;;;;;5055336;28;20469;-60
2022/04/07 04:38:07;;;;;;;0.47;0.20;;;10.10;1.00;;;;;;5054566;28;20457;-60
2022/04/07 04:40:33;;;;;;;0.50;0.30;;;10.10;1.00;;;;;;5055084;28;20527;-60
2022/04/07 04:43:00;;;;;;;0.40;0.20;;;10.10;1.00;;;;;;5054564;28;20528;-61
2022/04/07 04:45:27;;;;;;;0.80;0.20;;;10.10;1.00;;;;;;5054784;28;20724;-61
2022/04/07 04:47:54;;;;;;;0.40;0.20;;;10.20;1.00;;;;;;5054041;28;20435;-61
2022/04/07 04:50:21;;;;;;;0.30;0.20;;;10.20;1.00;;;;;;5054701;28;20479;-62
2022/04/07 04:52:49;;;;;;;0.40;0.20;;;10.20;1.00;;;;;;5053187;28;20417;-62
2022/04/07 04:55:16;;;;;;;0.30;0.20;;;10.30;1.00;;;;;;5053470;28;20461;-61
2022/04/07 04:57:43;;;;;;;0.70;0.20;;;10.30;1.00;;;;;;5054514;28;20464;-61
2022/04/07 05:00:11;;;;;;;0.50;0.20;;;10.30;1.00;;;;;;5054660;28;20417;-60
2022/04/07 05:02:39;;;;;;;0.70;0.20;;;10.30;1.00;;;;;;5054870;28;20425;-61
2022/04/07 05:05:07;;;;;;;0.40;0.20;;;10.30;1.00;;;;;;5054606;28;20887;-60
2022/04/07 05:07:34;;;;;;;1.20;0.20;;;10.30;1.00;;;;;;5053757;28;20464;-60
2022/04/07 05:10:03;;;;;;;0.70;0.20;;;10.40;1.00;;;;;;5053422;28;20853;-60
2022/04/07 05:12:30;;;;;;;0.52;0.20;;;10.40;1.00;;;;;;5053804;28;20457;-60
2022/04/07 05:14:57;;;;;;;0.50;0.20;;;10.30;1.00;;;;;;5051461;28;20926;-61
2022/04/07 05:17:24;;;;;;;0.40;0.20;;;10.30;1.00;;;;;;5051379;28;20516;-60
2022/04/07 05:19:51;;;;;;;0.40;0.20;;;10.30;1.00;;;;;;5049855;28;20453;-60
2022/04/07 05:22:19;;;;;;;0.40;0.20;;;10.30;1.00;;;;;;5052304;28;20534;-60
2022/04/07 05:24:46;;;;;;;0.30;0.10;;;10.20;1.00;;;;;;5052306;28;20428;-59
2022/04/07 05:27:14;;;;;;;0.60;0.20;;;10.20;1.00;;;;;;5051842;28;20453;-59
2022/04/07 05:29:41;;;;;;;0.90;0.20;;;10.10;1.00;;;;;;5051687;28;20504;-59
2022/04/07 05:32:08;;;;;;;0.30;0.20;;;10.10;1.00;;;;;;5050243;28;20464;-60
2022/04/07 05:34:35;;;;;;;0.60;0.20;;;10.10;1.00;;;;;;5053088;28;20904;-60
2022/04/07 05:37:02;;;;;;;0.30;0.20;;;10.10;1.00;;;;;;5052643;28;20527;-59
2022/04/07 05:39:29;;;;;;;0.30;0.20;;;10.20;1.00;;;;;;5052989;28;20439;-60
2022/04/07 05:41:56;;;;;;;0.40;0.20;;;10.20;1.00;;;;;;5051841;28;20429;-59
2022/04/07 05:44:24;;;;;;;0.38;0.20;;;10.30;1.00;;;;;;5052740;28;20535;-59
2022/04/07 05:46:51;;;;;;;0.40;0.17;;;10.20;1.00;;;;;;5052818;28;20852;-60
2022/04/07 05:49:18;;;;;;;0.30;0.10;;;10.30;1.00;;;;;;5052742;28;20507;-60
2022/04/07 05:51:47;;;;;;;0.40;0.20;;;10.40;1.00;;;;;;5051043;28;20452;-59
2022/04/07 05:54:16;;;;;;;0.50;0.20;;;10.30;1.00;;;;;;5050288;28;20432;-60
2022/04/07 05:56:43;;;;;;;0.40;0.10;;;10.30;1.00;;;;;;5049811;28;20531;-60
2022/04/07 05:59:10;;;;;;;0.30;0.10;;;10.30;1.00;;;;;;5048531;28;20456;-59
2022/04/07 06:01:38;;;;;;;0.40;0.20;;;10.40;1.00;;;;;;5050040;28;20908;-59
2022/04/07 06:04:05;;;;;;;0.60;0.30;;;10.50;1.00;;;;;;5051308;28;20528;-58
2022/04/07 06:06:32;;;;;;;0.30;0.20;;;10.60;1.00;;;;;;5050784;28;20425;-59
2022/04/07 06:08:59;;;;;;;0.30;0.10;;;10.80;1.00;;;;;;5049290;28;20428;-59
2022/04/07 06:11:26;;;;;;;0.40;0.10;;;10.90;1.00;;;;;;5048142;28;20864;-59
2022/04/07 06:13:53;;;;;;;0.30;0.10;;;10.90;1.00;;;;;;5048334;28;20472;-59
2022/04/07 06:16:20;;;;;;;0.30;0.10;;;10.90;1.00;;;;;;5050206;28;20806;-59
2022/04/07 06:18:48;;;;;;;0.30;0.10;;;11.10;1.00;;;;;;5048720;28;20633;-60
2022/04/07 06:21:15;;;;;;;0.40;0.20;;;11.10;35.50;;;;;;5048824;28;20527;-59
2022/04/07 06:23:42;;;;;;;0.30;0.10;;;11.10;1.00;;;;;;5048625;28;20705;-59
2022/04/07 06:26:09;;;;;;;0.30;0.10;;;11.20;1.00;;;;;;5050477;28;20516;-58
2022/04/07 06:28:36;;;;;;;0.30;0.10;;;11.20;1.00;;;;;;5053191;28;20455;-58
2022/04/07 06:31:03;;;;;;;0.40;0.10;;;11.30;1.00;;;;;;5051313;28;20439;-58
2022/04/07 06:33:30;;;;;;;0.30;0.10;;;11.20;1.00;;;;;;5054696;28;20875;-59
2022/04/07 06:35:58;;;;;;;0.30;0.10;;;11.30;99.90;;;;;;5055792;28;20759;-59
2022/04/07 06:38:25;;;;;;;0.30;0.20;;;11.30;1.00;;;;;;5055169;28;20515;-59
2022/04/07 06:40:52;;;;;;;0.30;0.20;;;11.30;99.90;;;;;;5055016;28;20515;-59
2022/04/07 06:43:21;;;;;;;0.35;0.10;;;11.20;99.90;;;;;;5054498;28;20828;-61
2022/04/07 06:45:48;;;;;;;0.30;0.10;;;11.30;1.00;;;;;;5055470;28;20436;-61
2022/04/07 06:48:15;;;;;;;0.30;0.15;;;11.30;1.00;;;;;;5054420;28;20512;-61
2022/04/07 06:50:44;;;;;;;0.40;0.20;;;11.30;1.00;;;;;;5054391;28;20417;-62
2022/04/07 06:53:13;;;;;;;0.30;0.10;;;11.30;1.00;;;;;;5054649;28;20425;-61
2022/04/07 06:55:40;;;;;;;0.30;0.10;;;11.40;99.90;;;;;;5053599;28;20439;-61
2022/04/07 06:58:08;;;;;;;0.30;0.10;;;11.30;1.00;;;;;;5051507;28;20528;-61
2022/04/07 07:00:36;;;;;;;0.30;0.10;;;11.30;1.00;;;;;;5053048;28;20444;-61
2022/04/07 07:03:04;;;;;;;0.30;0.10;;;11.30;99.90;;;;;;5052476;28;20532;-61
2022/04/07 07:05:33;;;;;;;0.40;0.10;;;11.40;99.90;;;;;;5053765;28;20456;-60
2022/04/07 07:08:13;;;;;;;0.40;0.10;;;11.40;99.90;;;;;;5051227;28;20882;-61
2022/04/07 07:10:40;;;;;;;0.60;0.10;;;11.30;1.00;;;;;;5053569;28;20483;-58
2022/04/07 07:13:06;;;;;;;0.30;0.10;;;11.40;1.00;;;;;;5054159;28;20425;-60
2022/04/07 07:15:34;;;;;;;0.80;0.10;;;11.40;1.00;;;;;;5054374;28;20527;-61
2022/04/07 07:18:00;;;;;;;0.30;0.10;;;11.50;99.60;;;;;;5054707;28;20429;-57
2022/04/07 07:20:27;;;;;;;0.32;0.10;;;11.60;99.90;;;;;;5048304;28;20479;-60
2022/04/07 07:22:54;;;;;;;0.40;0.10;;;11.60;99.90;;;;;;5053543;28;20530;-61
2022/04/07 07:25:23;;;;;;;0.30;0.10;;;11.50;99.90;;;;;;5052679;28;20453;-60
2022/04/07 07:27:50;;;;;;;0.40;0.20;;;11.50;12.00;;;;;;5052641;28;20487;-61
2022/04/07 07:30:18;;;;;;;0.30;0.10;;;11.60;1.00;;;;;;5051996;28;20460;-58
2022/04/07 07:32:55;;;;;;;0.30;0.10;;;11.60;99.90;;;;;;5054350;28;20524;-59
2022/04/07 07:35:24;;;;;;;0.50;0.20;;;11.70;1.00;;;;;;5048041;28;20726;-61
2022/04/07 07:37:52;;;;;;;1.20;0.10;;;11.90;1.00;;;;;;5054858;28;20425;-59
2022/04/07 07:40:20;;;;;;;4.85;2.55;;;11.90;99.90;;;;;;5054453;28;20898;-58
2022/04/07 07:42:49;;;;;;;0.40;0.20;;;12.00;99.90;;;;;;5054183;28;20421;-59
2022/04/07 07:45:18;;;;;;;0.50;0.15;;;12.10;1.00;;;;;;5054188;28;20499;-59
2022/04/07 07:47:45;;;;;;;0.30;0.10;;;12.20;1.00;;;;;;5055705;28;20862;-59
2022/04/07 07:50:11;;;;;;;0.30;0.17;;;12.30;1.00;;;;;;5053414;28;20449;-58
2022/04/07 07:52:38;;;;;;;0.30;0.10;;;12.30;1.00;;;;;;5054151;28;20599;-60
2022/04/07 07:55:07;;;;;;;0.73;0.15;;;12.40;1.00;;;;;;5053982;28;20520;-59
2022/04/07 07:57:33;;;;;;;0.40;0.20;;;12.40;1.00;;;;;;5053697;28;20433;-59
2022/04/07 08:00:02;;;;;;;0.30;0.10;;;12.50;1.00;;;;;;5052081;28;20429;-60
2022/04/07 08:02:31;;;;;;;2.05;0.20;;;12.60;1.00;;;;;;5051827;28;20523;-60
2022/04/07 08:04:58;;;;;;;0.40;0.20;;;12.60;99.90;;;;;;5051985;28;20539;-60
2022/04/07 08:07:25;;;;;;;0.30;0.10;;;12.60;99.90;;;;;;5053596;28;20433;-60
2022/04/07 08:09:52;;;;;;;0.30;0.10;;;12.40;99.90;;;;;;5052759;28;20730;-60
2022/04/07 08:12:19;;;;;;;0.30;0.10;;;12.40;99.90;;;;;;5050692;28;20429;-60
2022/04/07 08:14:46;;;;;;;0.30;0.10;;;12.50;99.90;;;;;;5050780;28;20453;-59
2022/04/07 08:17:14;;;;;;;0.30;0.10;;;12.50;99.90;;;;;;5053372;28;20493;-60
2022/04/07 08:19:41;;;;;;;0.50;0.10;;;12.50;99.90;;;;;;5052852;28;20864;-60
2022/04/07 08:22:08;;;;;;;0.90;0.20;;;12.60;99.90;;;;;;5054237;28;20531;-60
2022/04/07 08:24:35;;;;;;;1.85;0.10;;;12.60;25.10;;;;;;5054159;28;20531;-60
2022/04/07 08:27:03;;;;;;;1.00;0.10;;;12.70;99.90;;;;;;5053858;28;20474;-60
2022/04/07 08:29:29;;;;;;;0.50;0.20;;;12.80;59.20;;;;;;5053746;28;20453;-60
2022/04/07 08:31:56;;;;;;;0.40;0.20;;;13.00;1.00;;;;;;5053330;28;20724;-61
2022/04/07 08:34:25;;;;;;;0.40;0.20;;;13.10;1.00;;;;;;5053037;28;20467;-61
2022/04/07 08:36:52;;;;;;;0.30;0.10;;;13.20;1.00;;;;;;5053361;28;20433;-61
2022/04/07 08:39:19;;;;;;;1.25;0.20;;;13.10;1.00;;;;;;5051505;28;20519;-60
2022/04/07 08:41:47;;;;;;;0.40;0.10;;;13.00;1.00;;;;;;5051721;28;20433;-59
2022/04/07 08:44:16;;;;;;;0.30;0.10;;;13.00;1.00;;;;;;5052330;28;20929;-60
2022/04/07 08:46:47;;;;;;;1.10;0.20;;;13.00;1.00;;;;;;5053580;28;20603;-60
2022/04/07 08:49:16;;;;;;;0.30;0.10;;;13.10;1.00;;;;;;5049603;28;20840;-59
2022/04/07 08:51:46;;;;;;;0.30;0.10;;;13.20;1.00;;;;;;5049883;28;20433;-59
2022/04/07 08:54:13;;;;;;;0.30;0.10;;;13.30;1.00;;;;;;5051705;28;20503;-59
2022/04/07 08:56:40;;;;;;;0.32;0.10;;;13.50;1.00;;;;;;5053125;28;20438;-59
2022/04/07 08:59:07;;;;;;;0.30;0.10;;;13.50;99.90;;;;;;5050958;28;20447;-62
2022/04/07 09:01:34;;;;;;;0.40;0.10;;;13.50;99.90;;;;;;5050452;28;20430;-62
2022/04/07 09:04:01;;;;;;;0.80;0.10;;;13.40;99.90;;;;;;5052546;28;20567;-60
2022/04/07 09:06:29;;;;;;;0.38;0.10;;;13.40;99.90;;;;;;5052868;28;20522;-60
2022/04/07 09:09:10;;;;;;;0.30;0.10;;;13.30;99.90;;;;;;5051487;28;20433;-60
2022/04/07 09:11:37;;;;;;;0.30;0.10;;;13.30;99.90;;;;;;5048592;28;20433;-61
2022/04/07 09:14:04;;;;;;;1.10;0.10;;;13.40;99.90;;;;;;5050434;28;20445;-60
2022/04/07 09:16:32;;;;;;;1.00;0.10;;;13.50;99.90;;;;;;5050185;28;20532;-60
2022/04/07 09:19:01;;;;;;;0.80;0.20;;;13.60;99.90;;;;;;5051186;28;20429;-60
2022/04/07 09:21:28;;;;;;;0.47;0.20;;;13.60;99.90;;;;;;5051932;28;20429;-60
2022/04/07 09:23:58;;;;;;;1.65;1.20;;;13.50;99.90;;;;;;5050100;28;20514;-60
2022/04/07 09:26:25;;;;;;;0.40;0.20;;;13.60;99.90;;;;;;5050742;28;20530;-59
2022/04/07 09:28:56;;;;;;;0.95;0.40;;;13.60;99.90;;;;;;5049910;28;20425;-60
2022/04/07 09:31:23;;;;;;;0.40;0.20;;;13.60;99.90;;;;;;5050677;28;20431;-61
2022/04/07 09:33:54;;;;;;;0.30;0.10;;;13.50;99.90;;;;;;5050179;28;21177;-61
2022/04/07 09:36:21;;;;;;;0.30;0.10;;;13.50;99.90;;;;;;5051736;28;20495;-59
2022/04/07 09:38:51;;;;;;;0.30;0.10;;;13.60;99.90;;;;;;5046431;28;20443;-60
2022/04/07 09:41:20;;;;;;;0.30;0.10;;;13.50;99.90;;;;;;5048244;28;20555;-59
2022/04/07 09:43:48;;;;;;;0.40;0.10;;;13.40;1.00;;;;;;5045952;28;20440;-61
2022/04/07 09:46:16;;;;;;;0.30;0.20;;;13.30;1.00;;;;;;5042833;28;20447;-61
2022/04/07 09:48:59;;;;;;;0.40;0.15;;;13.20;1.00;;;;;;5051589;28;20508;-61
2022/04/07 09:51:27;;;;;;;0.40;0.10;;;13.10;99.90;;;;;;5051489;28;20511;-61
2022/04/07 09:53:56;;;;;;;0.52;0.20;;;13.10;23.00;;;;;;5051051;28;20852;-58
2022/04/07 09:56:27;;;;;;;0.30;0.20;;;13.20;1.00;;;;;;5051434;28;20437;-59
2022/04/07 09:58:55;;;;;;;0.40;0.10;;;13.30;1.00;;;;;;5049353;28;20421;-59
2022/04/07 10:01:22;;;;;;;0.60;0.20;;;13.40;1.00;;;;;;5051268;28;20543;-64
2022/04/07 10:03:51;;;;;;;0.80;0.20;;;13.70;1.00;;;;;;5053371;28;20496;-55
2022/04/07 10:06:18;;;;;;;0.30;0.10;;;13.80;1.00;;;;;;5053810;28;20523;-58
2022/04/07 10:08:49;;;;;;;0.30;0.10;;;13.70;1.00;;;;;;5052182;28;20456;-56
2022/04/07 10:11:16;;;;;;;0.30;0.10;;;13.80;99.90;;;;;;5052863;28;20543;-57
2022/04/07 10:13:46;;;;;;;0.40;0.10;;;13.80;99.90;;;;;;5051522;28;20820;-55
2022/04/07 10:16:15;;;;;;;0.40;0.10;;;13.90;99.90;;;;;;5051451;28;20440;-56
2022/04/07 10:18:47;;;;;;;0.30;0.10;;;14.00;99.90;;;;;;5053263;28;20453;-57
2022/04/07 10:21:27;;;;;;;0.30;0.10;;;14.00;99.90;;;;;;5053806;28;20429;-55
2022/04/07 10:24:05;;;;;;;0.30;0.10;;;14.10;99.90;;;;;;5052782;28;20456;-57
2022/04/07 10:26:34;;;;;;;0.30;0.10;;;14.10;99.90;;;;;;5056232;28;20431;-57
2022/04/07 10:29:02;;;;;;;0.30;0.10;;;14.10;99.90;;;;;;5054524;28;20425;-57
2022/04/07 10:31:30;;;;;;;0.40;0.10;;;14.10;99.90;;;;;;5052786;28;20535;-55
2022/04/07 10:34:07;;;;;;;0.30;0.10;;;14.20;99.90;;;;;;5051978;28;20870;-59
2022/04/07 10:36:38;;;;;;;0.30;0.10;;;14.00;99.90;;;;;;5052291;28;20882;-55
2022/04/07 10:39:12;;;;;;;0.60;0.38;;;14.00;99.90;;;;;;5052698;28;20921;-59
2022/04/07 10:41:49;;;;;;;0.32;0.17;;;14.10;99.90;;;;;;5052096;28;20440;-56
2022/04/07 10:44:18;;;;;;;0.40;0.20;;;14.10;99.90;;;;;;5049971;28;20632;-59
2022/04/07 10:46:46;;;;;;;0.30;0.10;;;14.10;99.90;;;;;;5051149;28;20544;-59
2022/04/07 10:49:19;;;;;;;0.60;0.10;;;13.90;99.90;;;;;;5052095;28;20508;-58
2022/04/07 10:51:50;;;;;;;0.50;0.10;;;13.90;99.90;;;;;;5053565;28;20998;-58
2022/04/07 10:54:18;;;;;;;0.30;0.10;;;14.10;99.90;;;;;;5051343;28;20457;-59
2022/04/07 10:56:48;;;;;;;0.70;0.10;;;14.10;99.90;;;;;;5051466;28;20536;-59
2022/04/07 10:59:21;;;;;;;0.30;0.10;;;14.20;99.90;;;;;;5050043;28;20767;-58
2022/04/07 11:01:59;;;;;;;0.30;0.10;;;14.30;99.90;;;;;;5050808;28;20516;-60
2022/04/07 11:04:40;;;;;;;0.30;0.10;;;14.20;99.90;;;;;;5046376;28;20816;-59
2022/04/07 11:07:18;;;;;;;0.68;0.10;;;14.30;99.90;;;;;;5045474;28;20441;-58
2022/04/07 11:09:47;;;;;;;0.30;0.10;;;14.20;99.90;;;;;;5053305;28;20429;-58
2022/04/07 11:12:18;;;;;;;0.30;0.10;;;14.30;99.90;;;;;;5052534;28;20433;-59
2022/04/07 11:14:48;;;;;;;0.30;0.10;;;14.20;99.90;;;;;;5053282;28;20511;-58
2022/04/07 11:17:22;;;;;;;0.30;0.10;;;14.30;99.90;;;;;;5052935;28;20528;-58
2022/04/07 11:20:03;;;;;;;0.40;0.10;;;14.40;99.90;;;;;;5053483;28;20492;-57
2022/04/07 11:22:47;;;;;;;0.30;0.10;;;14.50;99.90;;;;;;5055099;28;20524;-57
2022/04/07 11:25:15;;;;;;;0.30;0.10;;;14.40;99.90;;;;;;5053195;28;20447;-57
2022/04/07 11:27:45;;;;;;;0.30;0.10;;;14.40;92.00;;;;;;5053473;28;20425;-58
2022/04/07 11:30:14;;;;;;;0.70;0.30;;;14.40;99.90;;;;;;5053135;28;20830;-57
2022/04/07 11:33:15;;;;;;;0.50;0.20;;;14.60;77.40;;;;;;5053387;28;20425;-58
2022/04/07 11:35:42;;;;;;;0.40;0.20;;;14.80;57.90;;;;;;5053400;28;20425;-57
2022/04/07 11:38:10;;;;;;;0.40;0.10;;;14.80;56.50;;;;;;5052591;28;20413;-58
2022/04/07 11:40:37;;;;;;;0.40;0.20;;;14.70;73.70;;;;;;5053780;28;20911;-58
2022/04/07 11:43:04;;;;;;;0.60;0.10;;;14.90;53.30;;;;;;5053487;28;20449;-56
2022/04/07 11:45:33;;;;;;;0.30;0.10;;;14.80;24.40;;;;;;5051874;28;20528;-58
2022/04/07 11:48:00;;;;;;;0.30;0.10;;;14.60;55.90;;;;;;5054051;28;20491;-58
2022/04/07 11:50:27;;;;;;;0.50;0.20;;;14.60;42.70;;;;;;5051701;28;20456;-58
2022/04/07 11:52:54;;;;;;;1.83;0.20;;;14.80;68.20;;;;;;5054200;28;20436;-58
2022/04/07 11:55:28;;;;;;;0.40;0.20;;;14.80;68.30;;;;;;5055543;28;20504;-57
2022/04/07 11:57:59;;;;;;;1.40;0.13;;;14.90;64.00;;;;;;5054606;28;20421;-57
2022/04/07 12:00:30;;;;;;;0.30;0.10;;;14.70;43.90;;;;;;5051271;28;20464;-58
2022/04/07 12:03:02;;;;;;;0.40;0.10;;;14.60;78.20;;;;;;5032223;28;20698;-57
2022/04/07 12:05:30;;;;;;;0.40;0.10;;;14.60;92.30;;;;;;5038705;28;20825;-58
2022/04/07 12:07:57;;;;;;;0.40;0.20;;;14.50;99.90;;;;;;5035032;28;20839;-59
2022/04/07 12:10:24;;;;;;;0.30;0.10;;;14.30;99.90;;;;;;5030375;28;20530;-58
2022/04/07 12:12:51;;;;;;;0.30;0.10;;;14.30;99.90;;;;;;5035961;28;20588;-58
2022/04/07 12:15:18;;;;;;;0.30;0.10;;;14.30;99.90;;;;;;5047234;28;20512;-58
2022/04/07 12:18:03;;;;;;;0.40;0.10;;;14.40;99.90;;;;;;5048726;28;21331;-58
2022/04/07 12:20:30;;;;;;;0.30;0.10;;;14.30;99.90;;;;;;5042979;28;20541;-58
2022/04/07 12:23:08;;;;;;;0.30;0.10;;;14.20;99.90;;;;;;5048695;28;20922;-59
2022/04/07 12:25:36;;;;;;;0.38;0.10;;;14.30;99.90;;;;;;5048680;28;20444;-58
2022/04/07 12:28:11;;;;;;;0.30;0.10;;;14.30;99.90;;;;;;5044812;28;20528;-58
2022/04/07 12:30:45;;;;;;;0.30;0.10;;;14.50;99.90;;;;;;5050711;28;20433;-60
2022/04/07 12:33:37;;;;;;;0.47;0.20;;;14.20;99.90;;;;;;5051642;28;20421;-58
2022/04/07 12:36:06;;;;;;;0.30;0.10;;;14.00;99.90;;;;;;5050934;28;20812;-59
2022/04/07 12:38:33;;;;;;;0.30;0.10;;;13.90;99.90;;;;;;5041325;28;20429;-58
2022/04/07 12:41:10;;;;;;;0.30;0.10;;;13.90;99.90;;;;;;5042523;28;20516;-59
2022/04/07 12:43:45;;;;;;;0.70;0.20;;;14.00;99.90;;;;;;5045249;28;20417;-59
2022/04/07 12:46:20;;;;;;;0.32;0.17;;;13.90;99.90;;;;;;5107904;27;20530;-58
2022/04/07 12:49:06;;;;;;;0.30;0.10;;;13.70;99.90;;;;;;5099054;28;20450;-56
2022/04/07 12:51:34;;;;;;;2.00;0.10;;;13.70;1.00;;;;;;5101485;28;20840;-57
2022/04/07 12:54:09;;;;;;;0.30;0.10;;;13.70;1.00;;;;;;5091691;28;20856;-59
2022/04/07 12:56:37;;;;;;;0.30;0.10;;;13.80;1.00;;;;;;5100893;28;20411;-59